createdAt,value
2022-10-03T00:01:49.460Z,100.00
2022-10-03T00:04:32.242Z,100.00
2022-10-03T00:07:21.365Z,100.00
2022-10-03T00:10:25.976Z,100.00
2022-10-03T00:13:20.368Z,100.00
2022-10-03T00:16:04.824Z,100.00
2022-10-03T00:18:42.836Z,100.00
2022-10-03T00:21:33.988Z,100.00
2022-10-03T00:24:19.627Z,100.00
2022-10-03T00:27:18.069Z,100.00
2022-10-03T00:29:57.200Z,100.00
2022-10-03T00:32:27.994Z,100.00
2022-10-03T00:35:08.224Z,100.00
2022-10-03T00:37:36.099Z,100.00
2022-10-03T00:40:36.710Z,100.00
2022-10-03T00:43:08.226Z,100.00
2022-10-03T00:45:59.331Z,100.00
2022-10-03T00:48:35.547Z,100.00
2022-10-03T00:51:32.587Z,100.00
2022-10-03T00:54:12.048Z,100.00
2022-10-03T00:56:46.143Z,100.00
2022-10-03T00:59:47.970Z,100.00
2022-10-03T01:02:27.151Z,100.00
2022-10-03T01:05:06.905Z,100.00
2022-10-03T01:08:00.617Z,100.00
2022-10-03T01:10:53.792Z,100.00
2022-10-03T01:13:28.267Z,100.00
2022-10-03T01:16:15.882Z,100.00
2022-10-03T01:18:45.929Z,100.00
2022-10-03T01:21:29.950Z,100.00
2022-10-03T01:24:09.493Z,100.00
2022-10-03T01:26:46.510Z,100.00
2022-10-03T01:29:53.162Z,100.00
2022-10-03T01:32:32.097Z,100.00
2022-10-03T01:35:19.768Z,100.00
2022-10-03T01:38:09.692Z,100.00
2022-10-03T01:40:43.956Z,100.00
2022-10-03T01:43:20.746Z,100.00
2022-10-03T01:46:01.433Z,100.00
2022-10-03T01:48:50.374Z,100.00
2022-10-03T01:51:29.940Z,100.00
2022-10-03T01:54:23.702Z,100.00
2022-10-03T01:57:29.415Z,100.00
2022-10-03T02:00:24.543Z,100.00
2022-10-03T02:02:56.505Z,100.00
2022-10-03T02:05:42.466Z,100.00
2022-10-03T02:08:28.800Z,100.00
2022-10-03T02:11:19.641Z,100.00
2022-10-03T02:13:50.999Z,100.00
2022-10-03T02:16:25.542Z,100.00
2022-10-03T02:19:31.131Z,100.00
2022-10-03T02:22:01.757Z,100.00
2022-10-03T02:24:38.336Z,100.00
2022-10-03T02:27:08.426Z,100.00
2022-10-03T02:30:02.837Z,100.00
2022-10-03T02:32:49.010Z,100.00
2022-10-03T02:35:17.277Z,100.00
2022-10-03T02:38:06.716Z,100.00
2022-10-03T02:40:37.809Z,100.00
2022-10-03T02:43:33.282Z,100.00
2022-10-03T02:46:03.252Z,100.00
2022-10-03T02:48:33.868Z,100.00
2022-10-03T02:51:05.133Z,100.00
2022-10-03T02:53:50.788Z,100.00
2022-10-03T02:56:36.571Z,100.00
2022-10-03T02:59:20.727Z,100.00
2022-10-03T03:01:56.806Z,100.00
2022-10-03T03:04:24.154Z,100.00
2022-10-03T03:10:12.803Z,100.00
2022-10-03T03:13:02.206Z,100.00
2022-10-03T03:16:01.246Z,100.00
2022-10-03T03:18:55.187Z,100.00
2022-10-03T03:21:49.226Z,100.00
2022-10-03T03:24:43.713Z,100.00
2022-10-03T03:27:31.616Z,100.00
2022-10-03T03:30:33.797Z,100.00
2022-10-03T03:33:05.396Z,100.00
2022-10-03T03:35:40.643Z,100.00
2022-10-03T03:38:28.517Z,100.00
2022-10-03T03:41:16.191Z,100.00
2022-10-03T03:44:08.061Z,100.00
2022-10-03T03:46:45.552Z,100.00
2022-10-03T03:49:48.868Z,100.00
2022-10-03T03:52:38.204Z,100.00
2022-10-03T03:55:26.817Z,100.00
2022-10-03T03:58:02.565Z,100.00
2022-10-03T04:00:45.180Z,100.00
2022-10-03T04:03:19.358Z,100.00
2022-10-03T04:06:13.590Z,100.00
2022-10-03T04:08:40.705Z,100.00
2022-10-03T04:11:30.674Z,100.00
2022-10-03T04:14:23.557Z,100.00
2022-10-03T04:17:21.574Z,100.00
2022-10-03T04:19:57.928Z,100.00
2022-10-03T04:22:28.655Z,100.00
2022-10-03T04:25:18.328Z,100.00
2022-10-03T04:28:00.615Z,100.00
2022-10-03T04:30:37.787Z,100.00
2022-10-03T04:33:10.947Z,100.00
2022-10-03T04:35:40.494Z,100.00
2022-10-03T04:38:23.908Z,100.00
2022-10-03T04:40:54.816Z,100.00
2022-10-03T04:43:42.323Z,99.92
2022-10-03T04:46:28.828Z,99.86
2022-10-03T04:49:00.377Z,98.94
2022-10-03T04:51:40.689Z,99.89
2022-10-03T04:54:19.602Z,100.00
2022-10-03T04:57:08.625Z,100.00
2022-10-03T04:59:48.755Z,100.00
2022-10-03T05:02:21.707Z,100.00
2022-10-03T05:05:12.584Z,100.00
2022-10-03T05:07:49.640Z,100.00
2022-10-03T05:10:18.661Z,100.00
2022-10-03T05:12:57.563Z,100.00
2022-10-03T05:15:53.648Z,100.00
2022-10-03T05:18:27.186Z,100.00
2022-10-03T05:21:22.502Z,100.00
2022-10-03T05:24:03.297Z,100.00
2022-10-03T05:26:46.856Z,100.00
2022-10-03T05:29:39.585Z,100.00
2022-10-03T05:32:11.128Z,100.00
2022-10-03T05:35:00.645Z,100.00
2022-10-03T05:37:41.620Z,100.00
2022-10-03T05:40:10.528Z,100.00
2022-10-03T05:42:55.901Z,100.00
2022-10-03T05:45:30.775Z,100.00
2022-10-03T05:48:11.978Z,100.00
2022-10-03T05:51:02.016Z,100.00
2022-10-03T05:53:43.258Z,100.00
2022-10-03T05:56:41.141Z,100.00
2022-10-03T05:59:31.867Z,100.00
2022-10-03T06:02:08.974Z,100.00
2022-10-03T06:04:55.048Z,100.00
2022-10-03T06:07:54.587Z,100.00
2022-10-03T06:10:40.373Z,100.00
2022-10-03T06:13:33.084Z,100.00
2022-10-03T06:16:18.197Z,100.00
2022-10-03T06:18:56.092Z,100.00
2022-10-03T06:21:25.131Z,100.00
2022-10-03T06:24:19.532Z,100.00
2022-10-03T06:27:04.589Z,100.00
2022-10-03T06:29:55.241Z,100.00
2022-10-03T06:32:40.367Z,100.00
2022-10-03T06:35:22.891Z,100.00
2022-10-03T06:37:49.999Z,100.00
2022-10-03T06:40:40.566Z,100.00
2022-10-03T06:43:41.611Z,100.00
2022-10-03T06:46:12.989Z,100.00
2022-10-03T06:48:43.046Z,100.00
2022-10-03T06:51:32.235Z,100.00
2022-10-03T06:54:19.999Z,100.00
2022-10-03T06:57:07.161Z,100.00
2022-10-03T06:59:54.730Z,100.00
2022-10-03T07:02:41.417Z,100.00
2022-10-03T07:05:27.318Z,100.00
2022-10-03T07:08:19.341Z,100.00
2022-10-03T07:10:52.571Z,100.00
2022-10-03T07:13:40.148Z,100.00
2022-10-03T07:16:28.662Z,100.00
2022-10-03T07:18:59.117Z,100.00
2022-10-03T07:21:42.035Z,100.00
2022-10-03T07:24:26.079Z,100.00
2022-10-03T07:27:34.229Z,100.00
2022-10-03T07:30:28.277Z,100.00
2022-10-03T07:32:55.307Z,100.00
2022-10-03T07:36:03.891Z,100.00
2022-10-03T07:38:58.465Z,100.00
2022-10-03T07:41:50.002Z,100.00
2022-10-03T07:44:43.081Z,100.00
2022-10-03T07:47:28.802Z,100.00
2022-10-03T07:50:19.140Z,100.00
2022-10-03T07:53:01.434Z,100.00
2022-10-03T07:55:49.829Z,100.00
2022-10-03T07:58:50.601Z,100.00
2022-10-03T08:01:36.589Z,100.00
2022-10-03T08:04:05.172Z,100.00
2022-10-03T08:06:42.835Z,100.00
2022-10-03T08:09:36.158Z,100.00
2022-10-03T08:12:27.851Z,100.00
2022-10-03T08:15:21.051Z,100.00
2022-10-03T08:17:54.008Z,100.00
2022-10-03T08:20:23.772Z,100.00
2022-10-03T08:22:54.378Z,100.00
2022-10-03T08:25:29.745Z,100.00
2022-10-03T08:28:17.273Z,100.00
2022-10-03T08:31:02.720Z,100.00
2022-10-03T08:33:30.423Z,100.00
2022-10-03T08:36:16.474Z,100.00
2022-10-03T08:39:03.201Z,100.00
2022-10-03T08:41:32.197Z,100.00
2022-10-03T08:44:19.685Z,100.00
2022-10-03T08:47:05.515Z,100.00
2022-10-03T08:49:55.086Z,100.00
2022-10-03T08:52:25.473Z,100.00
2022-10-03T08:54:52.443Z,100.00
2022-10-03T08:57:22.451Z,100.00
2022-10-03T09:00:08.669Z,100.00
2022-10-03T09:03:20.183Z,100.00
2022-10-03T09:06:01.282Z,100.00
2022-10-03T09:08:40.404Z,100.00
2022-10-03T09:11:26.370Z,100.00
2022-10-03T09:13:57.936Z,100.00
2022-10-03T09:16:44.100Z,100.00
2022-10-03T09:19:36.762Z,100.00
2022-10-03T09:22:12.964Z,100.00
2022-10-03T09:24:58.580Z,100.00
2022-10-03T09:27:37.255Z,100.00
2022-10-03T09:30:17.546Z,100.00
2022-10-03T09:32:47.791Z,100.00
2022-10-03T09:35:26.727Z,100.00
2022-10-03T09:37:56.663Z,100.00
2022-10-03T09:40:44.515Z,100.00
2022-10-03T09:43:33.147Z,100.00
2022-10-03T09:46:21.008Z,100.00
2022-10-03T09:49:13.365Z,100.00
2022-10-03T09:52:18.828Z,100.00
2022-10-03T09:54:55.583Z,99.82
2022-10-03T09:57:44.234Z,99.60
2022-10-03T10:00:17.376Z,98.58
2022-10-03T10:02:52.107Z,98.03
2022-10-03T10:05:25.477Z,96.86
2022-10-03T10:08:13.325Z,97.64
2022-10-03T10:10:59.373Z,97.91
2022-10-03T10:13:56.074Z,97.16
2022-10-03T10:16:42.468Z,97.35
2022-10-03T10:19:38.878Z,97.69
2022-10-03T10:22:20.445Z,97.00
2022-10-03T10:24:54.978Z,96.35
2022-10-03T10:27:50.218Z,95.55
2022-10-03T10:30:46.530Z,91.90
2022-10-03T10:33:20.335Z,90.28
2022-10-03T10:36:07.250Z,89.84
2022-10-03T10:39:00.666Z,89.50
2022-10-03T10:41:54.044Z,89.85
2022-10-03T10:44:34.050Z,89.95
2022-10-03T10:47:49.756Z,90.58
2022-10-03T10:50:33.358Z,90.55
2022-10-03T10:53:20.230Z,90.27
2022-10-03T10:55:48.285Z,90.03
2022-10-03T10:58:41.444Z,92.09
2022-10-03T11:01:27.716Z,94.10
2022-10-03T11:04:13.642Z,95.49
2022-10-03T11:06:42.757Z,93.07
2022-10-03T11:09:35.262Z,90.77
2022-10-03T11:12:22.028Z,89.82
2022-10-03T11:14:55.211Z,89.69
2022-10-03T11:17:54.136Z,90.00
2022-10-03T11:20:30.201Z,90.75
2022-10-03T11:23:17.218Z,89.56
2022-10-03T11:25:51.656Z,89.61
2022-10-03T11:28:38.537Z,88.57
2022-10-03T11:31:11.418Z,88.37
2022-10-03T11:33:50.975Z,88.20
2022-10-03T11:36:37.594Z,88.46
2022-10-03T11:39:16.328Z,87.38
2022-10-03T11:41:46.430Z,88.71
2022-10-03T11:44:24.485Z,90.46
2022-10-03T11:46:55.585Z,90.29
2022-10-03T11:49:32.869Z,90.34
2022-10-03T11:52:09.180Z,90.00
2022-10-03T11:54:40.388Z,90.18
2022-10-03T11:57:18.266Z,90.07
2022-10-03T11:59:55.034Z,88.53
2022-10-03T12:02:42.413Z,88.10
2022-10-03T12:05:21.610Z,86.72
2022-10-03T12:08:25.901Z,85.13
2022-10-03T12:11:28.954Z,85.47
2022-10-03T12:14:11.292Z,86.58
2022-10-03T12:16:58.586Z,84.79
2022-10-03T12:19:32.279Z,84.91
2022-10-03T12:22:20.935Z,85.12
2022-10-03T12:24:57.169Z,85.05
2022-10-03T12:27:36.627Z,84.27
2022-10-03T12:30:15.505Z,83.40
2022-10-03T12:32:59.809Z,81.69
2022-10-03T12:35:45.133Z,78.16
2022-10-03T12:38:12.109Z,76.20
2022-10-03T12:41:02.632Z,74.38
2022-10-03T12:43:48.066Z,72.14
2022-10-03T12:46:32.256Z,72.18
2022-10-03T12:49:28.789Z,74.35
2022-10-03T12:52:24.024Z,77.00
2022-10-03T12:55:06.075Z,80.67
2022-10-03T12:58:02.370Z,80.41
2022-10-03T13:00:50.053Z,79.88
2022-10-03T13:03:21.175Z,80.18
2022-10-03T13:05:55.768Z,80.81
2022-10-03T13:08:41.890Z,82.35
2022-10-03T13:11:33.318Z,83.81
2022-10-03T13:14:28.516Z,86.43
2022-10-03T13:17:02.608Z,86.82
2022-10-03T13:19:52.351Z,88.16
2022-10-03T13:22:37.992Z,88.86
2022-10-03T13:25:14.202Z,89.89
2022-10-03T13:27:52.523Z,90.55
2022-10-03T13:30:37.351Z,91.19
2022-10-03T13:33:15.540Z,91.67
2022-10-03T13:36:10.067Z,91.86
2022-10-03T13:39:15.027Z,92.87
2022-10-03T13:42:02.021Z,93.52
2022-10-03T13:44:59.781Z,93.08
2022-10-03T13:47:45.641Z,91.65
2022-10-03T13:50:17.035Z,87.73
2022-10-03T13:53:03.747Z,83.25
2022-10-03T13:55:57.502Z,79.92
2022-10-03T13:58:30.080Z,76.94
2022-10-03T14:01:00.085Z,76.62
2022-10-03T14:03:31.518Z,76.06
2022-10-03T14:06:25.799Z,78.95
2022-10-03T14:09:07.377Z,80.21
2022-10-03T14:11:54.005Z,81.61
2022-10-03T14:14:34.991Z,84.01
2022-10-03T14:17:04.929Z,85.64
2022-10-03T14:19:37.393Z,87.38
2022-10-03T14:22:04.738Z,88.54
2022-10-03T14:24:56.192Z,88.56
2022-10-03T14:27:42.753Z,89.37
2022-10-03T14:30:15.800Z,90.35
2022-10-03T14:33:07.578Z,91.11
2022-10-03T14:35:55.431Z,91.26
2022-10-03T14:38:48.428Z,91.33
2022-10-03T14:41:26.486Z,91.35
2022-10-03T14:44:12.987Z,90.93
2022-10-03T14:46:44.899Z,90.68
2022-10-03T14:49:47.139Z,90.37
2022-10-03T14:52:22.643Z,90.47
2022-10-03T14:54:58.275Z,89.69
2022-10-03T14:57:34.862Z,89.29
2022-10-03T15:00:32.865Z,88.88
2022-10-03T15:03:12.989Z,89.59
2022-10-03T15:05:51.832Z,90.14
2022-10-03T15:08:20.933Z,90.31
2022-10-03T15:10:51.328Z,90.45
2022-10-03T15:13:23.955Z,92.46
2022-10-03T15:15:55.731Z,93.80
2022-10-03T15:18:25.673Z,94.21
2022-10-03T15:20:55.112Z,93.40
2022-10-03T15:23:44.666Z,93.35
2022-10-03T15:26:20.184Z,93.07
2022-10-03T15:28:51.842Z,91.94
2022-10-03T15:31:39.980Z,91.84
2022-10-03T15:34:15.368Z,90.61
2022-10-03T15:36:47.416Z,90.23
2022-10-03T15:39:20.472Z,90.75
2022-10-03T15:41:52.785Z,89.88
2022-10-03T15:44:39.732Z,89.26
2022-10-03T15:47:15.595Z,89.34
2022-10-03T15:49:49.555Z,89.21
2022-10-03T15:52:24.287Z,89.53
2022-10-03T15:55:03.113Z,90.32
2022-10-03T15:58:00.058Z,89.81
2022-10-03T16:00:32.304Z,89.54
2022-10-03T16:03:09.106Z,90.19
2022-10-03T16:06:01.289Z,89.98
2022-10-03T16:08:40.529Z,89.40
2022-10-03T16:11:09.445Z,89.62
2022-10-03T16:13:49.552Z,89.95
2022-10-03T16:16:19.820Z,90.20
2022-10-03T16:18:54.226Z,90.34
2022-10-03T16:21:42.673Z,90.10
2022-10-03T16:24:18.840Z,90.38
2022-10-03T16:27:08.275Z,91.04
2022-10-03T16:29:38.579Z,91.58
2022-10-03T16:32:10.603Z,91.72
2022-10-03T16:34:42.169Z,91.88
2022-10-03T16:37:16.800Z,92.37
2022-10-03T16:39:51.043Z,92.15
2022-10-03T16:42:26.272Z,92.12
2022-10-03T16:44:55.764Z,92.38
2022-10-03T16:47:43.375Z,91.48
2022-10-03T16:50:43.991Z,91.24
2022-10-03T16:53:13.860Z,91.98
2022-10-03T16:55:57.867Z,92.50
2022-10-03T16:58:40.421Z,92.72
2022-10-03T17:01:34.644Z,92.61
2022-10-03T17:04:17.688Z,92.71
2022-10-03T17:06:47.701Z,93.10
2022-10-03T17:09:39.630Z,93.50
2022-10-03T17:12:28.177Z,93.20
2022-10-03T17:15:07.719Z,94.36
2022-10-03T17:17:49.350Z,95.26
2022-10-03T17:20:38.887Z,95.74
2022-10-03T17:23:15.118Z,96.59
2022-10-03T17:26:21.112Z,97.08
2022-10-03T17:28:52.439Z,97.61
2022-10-03T17:31:40.620Z,98.03
2022-10-03T17:34:17.246Z,98.26
2022-10-03T17:36:49.572Z,97.94
2022-10-03T17:39:19.488Z,97.61
2022-10-03T17:42:13.302Z,97.62
2022-10-03T17:45:07.278Z,97.50
2022-10-03T17:47:36.199Z,97.41
2022-10-03T17:50:38.413Z,97.44
2022-10-03T17:53:27.905Z,97.63
2022-10-03T17:56:01.871Z,97.18
2022-10-03T17:58:33.869Z,97.18
2022-10-03T18:01:17.858Z,97.58
2022-10-03T18:04:11.137Z,97.19
2022-10-03T18:07:15.410Z,96.85
2022-10-03T18:09:50.741Z,96.55
2022-10-03T18:12:33.753Z,96.13
2022-10-03T18:15:38.624Z,95.77
2022-10-03T18:18:30.171Z,95.44
2022-10-03T18:21:17.541Z,94.89
2022-10-03T18:24:01.913Z,94.75
2022-10-03T18:26:51.057Z,94.41
2022-10-03T18:29:46.710Z,94.43
2022-10-03T18:32:22.919Z,94.04
2022-10-03T18:35:00.028Z,94.14
2022-10-03T18:37:45.252Z,94.31
2022-10-03T18:40:30.362Z,94.18
2022-10-03T18:43:34.144Z,94.16
2022-10-03T18:46:14.779Z,93.93
2022-10-03T18:49:09.117Z,93.95
2022-10-03T18:52:07.161Z,94.04
2022-10-03T18:54:56.074Z,94.59
2022-10-03T18:57:27.513Z,94.74
2022-10-03T19:00:08.434Z,94.67
2022-10-03T19:02:52.224Z,95.04
2022-10-03T19:05:49.338Z,95.33
2022-10-03T19:08:22.161Z,95.38
2022-10-03T19:10:57.895Z,95.45
2022-10-03T19:13:39.018Z,96.03
2022-10-03T19:16:19.929Z,97.28
2022-10-03T19:19:12.698Z,97.94
2022-10-03T19:21:49.967Z,98.21
2022-10-03T19:24:57.923Z,98.48
2022-10-03T19:28:00.039Z,98.45
2022-10-03T19:30:31.000Z,98.30
2022-10-03T19:33:09.642Z,98.43
2022-10-03T19:35:43.468Z,98.06
2022-10-03T19:38:36.864Z,98.28
2022-10-03T19:41:30.104Z,98.04
2022-10-03T19:44:02.144Z,98.41
2022-10-03T19:46:32.792Z,98.08
2022-10-03T19:52:27.354Z,98.03
2022-10-03T19:55:00.633Z,98.25
2022-10-03T19:57:29.808Z,98.14
2022-10-03T20:00:01.464Z,97.88
2022-10-03T20:03:18.377Z,97.65
2022-10-03T20:06:14.343Z,97.57
2022-10-03T20:09:25.352Z,97.49
2022-10-03T20:12:20.883Z,97.51
2022-10-03T20:15:26.075Z,97.59
2022-10-03T20:17:59.688Z,97.93
2022-10-03T20:20:57.472Z,98.14
2022-10-03T20:23:27.330Z,98.17
2022-10-03T20:26:00.623Z,98.66
2022-10-03T20:28:48.304Z,98.50
2022-10-03T20:31:24.422Z,98.79
2022-10-03T20:33:53.343Z,98.52
2022-10-03T20:36:28.480Z,98.53
2022-10-03T20:38:55.334Z,98.59
2022-10-03T20:41:36.755Z,98.97
2022-10-03T20:44:08.752Z,99.08
2022-10-03T20:47:02.473Z,99.09
2022-10-03T20:49:54.096Z,99.85
2022-10-03T20:52:29.053Z,100.00
2022-10-03T20:55:00.889Z,100.00
2022-10-03T20:57:49.534Z,100.00
2022-10-03T21:04:03.947Z,100.00
2022-10-03T21:06:33.434Z,100.00
2022-10-03T21:09:02.885Z,100.00
2022-10-03T21:11:40.993Z,100.00
2022-10-03T21:14:26.046Z,100.00
2022-10-03T21:16:54.644Z,100.00
2022-10-03T21:19:59.917Z,100.00
2022-10-03T21:22:36.572Z,100.00
2022-10-03T21:25:21.892Z,100.00
2022-10-03T21:28:24.902Z,100.00
2022-10-03T21:31:30.031Z,100.00
2022-10-03T21:34:00.385Z,100.00
2022-10-03T21:36:41.548Z,100.00
2022-10-03T21:39:30.173Z,100.00
2022-10-03T21:42:22.793Z,100.00
2022-10-03T21:48:27.346Z,100.00
2022-10-03T21:51:31.243Z,100.00
2022-10-03T21:54:38.570Z,100.00
2022-10-03T21:57:26.915Z,100.00
2022-10-03T22:03:45.687Z,100.00
2022-10-03T22:06:42.291Z,100.00
2022-10-03T22:09:33.055Z,100.00
2022-10-03T22:12:07.112Z,100.00
2022-10-03T22:15:04.852Z,100.00
2022-10-03T22:18:08.601Z,100.00
2022-10-03T22:20:57.291Z,100.00
2022-10-03T22:23:47.895Z,100.00
2022-10-03T22:26:50.307Z,100.00
2022-10-03T22:32:44.952Z,100.00
2022-10-03T22:35:22.174Z,100.00
2022-10-03T22:37:57.646Z,100.00
2022-10-03T22:40:41.205Z,100.00
2022-10-03T22:43:08.844Z,100.00
2022-10-03T22:45:41.686Z,100.00
2022-10-03T22:48:31.571Z,100.00
2022-10-03T22:54:20.172Z,100.00
2022-10-03T22:56:53.047Z,100.00
2022-10-03T22:59:35.162Z,100.00
2022-10-03T23:02:16.404Z,100.00
2022-10-03T23:05:24.430Z,100.00
2022-10-03T23:08:20.882Z,100.00
2022-10-03T23:11:16.793Z,100.00
2022-10-03T23:13:54.768Z,100.00
2022-10-03T23:16:34.932Z,100.00
2022-10-03T23:19:33.635Z,100.00
2022-10-03T23:22:18.595Z,100.00
2022-10-03T23:25:26.492Z,100.00
2022-10-03T23:28:15.809Z,100.00
2022-10-03T23:30:48.703Z,100.00
2022-10-03T23:33:36.692Z,100.00
2022-10-03T23:36:04.862Z,100.00
2022-10-03T23:38:35.297Z,100.00
2022-10-03T23:44:27.049Z,100.00
2022-10-03T23:46:54.898Z,100.00
2022-10-03T23:49:23.778Z,100.00
2022-10-03T23:51:51.671Z,100.00
2022-10-03T23:54:23.555Z,100.00
2022-10-03T23:56:50.672Z,100.00
2022-10-03T23:59:36.832Z,100.00
